createdAt,value
2016-08-27T13:17:17.626Z,1013.72
2016-08-27T13:18:30.619Z,1013.7
2016-08-27T13:19:43.616Z,1013.67
2016-08-27T13:20:56.608Z,1013.64
2016-08-27T13:22:09.608Z,1013.65
2016-08-27T13:23:22.611Z,1013.67
2016-08-27T13:24:35.622Z,1013.67
2016-08-27T13:25:48.617Z,1013.64
2016-08-27T13:27:01.615Z,1013.62
2016-08-27T13:28:14.616Z,1013.55
2016-08-27T13:29:27.614Z,1013.6
2016-08-27T13:30:40.603Z,1013.52
2016-08-27T13:31:53.612Z,1013.53
2016-08-27T13:33:06.819Z,1013.53
2016-08-27T13:34:19.816Z,1013.48
2016-08-27T13:35:32.814Z,1013.46
2016-08-27T13:36:45.807Z,1013.47
2016-08-27T13:37:58.804Z,1013.49
2016-08-27T13:39:11.804Z,1013.41
2016-08-27T13:40:24.810Z,1013.44
2016-08-27T13:41:37.810Z,1013.4
2016-08-27T13:42:51.017Z,1013.36
2016-08-27T13:44:04.125Z,1013.36
2016-08-27T13:45:17.118Z,1013.39
2016-08-27T13:46:30.133Z,1013.35
2016-08-27T13:47:43.135Z,1013.34
2016-08-27T13:48:56.140Z,1013.31
2016-08-27T13:50:09.144Z,1013.32
2016-08-27T13:51:22.141Z,1013.28
2016-08-27T13:52:35.141Z,1013.25
2016-08-27T13:53:48.134Z,1013.24
2016-08-27T13:55:01.131Z,1013.2
2016-08-27T13:56:14.131Z,1013.19
2016-08-27T13:57:27.116Z,1013.17
2016-08-27T13:58:40.125Z,1013.17
2016-08-27T13:59:53.600Z,1013.12
2016-08-27T14:01:06.597Z,1013.14
2016-08-27T14:02:19.589Z,1013.08
2016-08-27T14:03:32.802Z,1013.09
2016-08-27T14:04:45.806Z,1013.1
2016-08-27T14:05:58.812Z,1013.08
2016-08-27T14:07:11.813Z,1013.06
2016-08-27T14:08:24.800Z,1013.02
2016-08-27T14:09:37.827Z,1013
2016-08-27T14:10:50.846Z,1013.02
2016-08-27T14:12:03.848Z,1012.98
2016-08-27T14:13:16.844Z,1012.96
2016-08-27T14:14:29.859Z,1012.96
2016-08-27T14:15:42.862Z,1012.92
2016-08-27T14:16:55.852Z,1012.95
2016-08-27T14:18:08.844Z,1012.88
2016-08-27T14:19:21.846Z,1012.89
2016-08-27T14:20:34.853Z,1012.88
2016-08-27T14:21:47.841Z,1012.85
2016-08-27T14:23:00.852Z,1012.82
2016-08-27T14:24:13.853Z,1012.84
2016-08-27T14:25:26.888Z,1012.84
2016-08-27T14:26:39.890Z,1012.85
2016-08-27T14:27:52.887Z,1012.76
2016-08-27T14:29:05.881Z,1012.73
2016-08-27T14:30:18.879Z,1012.68
2016-08-27T14:31:31.895Z,1012.66
2016-08-27T14:32:45.089Z,1012.61
2016-08-27T14:33:58.091Z,1012.62
2016-08-27T14:35:11.092Z,1012.64
2016-08-27T14:36:24.088Z,1012.58
2016-08-27T14:37:37.089Z,1012.57
2016-08-27T14:38:50.100Z,1012.56
2016-08-27T14:40:03.102Z,1012.53
2016-08-27T14:41:16.120Z,1012.54
2016-08-27T14:42:29.146Z,1012.48
2016-08-27T14:43:42.349Z,1012.48
2016-08-27T14:44:55.407Z,1012.48
2016-08-27T14:46:08.887Z,1012.5
2016-08-27T14:47:22.992Z,1012.51
2016-08-27T14:48:36.186Z,1012.48
2016-08-27T14:49:49.183Z,1012.51
2016-08-27T14:51:02.187Z,1012.48
2016-08-27T14:52:15.175Z,1012.48
2016-08-27T14:53:28.186Z,1012.48
2016-08-27T14:54:41.185Z,1012.48
2016-08-27T14:55:54.178Z,1012.49
2016-08-27T14:57:07.390Z,1012.5
2016-08-27T14:58:20.650Z,1012.49
2016-08-27T14:59:35.053Z,1012.45
2016-08-27T15:00:49.606Z,1012.43
2016-08-27T15:02:02.792Z,1012.42
2016-08-27T15:03:18.147Z,1012.39
2016-08-27T15:04:31.363Z,1012.33
2016-08-27T15:05:45.500Z,1012.47
2016-08-27T15:07:00.415Z,1012.39
2016-08-27T15:08:13.415Z,1012.37
2016-08-27T15:09:26.411Z,1012.34
2016-08-27T15:10:40.766Z,1012.37
2016-08-27T15:11:53.762Z,1012.35
2016-08-27T15:13:06.777Z,1012.3
2016-08-27T15:14:19.770Z,1012.28
2016-08-27T15:15:32.765Z,1012.27
2016-08-27T15:16:45.758Z,1012.22
2016-08-27T15:17:58.945Z,1012.18
2016-08-27T15:19:14.021Z,1012.16
2016-08-27T15:20:27.024Z,1012.2
2016-08-27T15:21:40.011Z,1012.19
2016-08-27T15:22:54.144Z,1012.2
2016-08-27T15:24:07.154Z,1012.19
2016-08-27T15:25:20.160Z,1012.19
2016-08-27T15:26:33.170Z,1012.22
2016-08-27T15:27:46.689Z,1012.2
2016-08-27T15:28:59.704Z,1012.24
2016-08-27T15:30:12.706Z,1012.21
2016-08-27T15:31:25.713Z,1012.19
2016-08-27T15:32:38.713Z,1012.18
2016-08-27T15:33:51.902Z,1012.2
2016-08-27T15:35:04.917Z,1012.23
2016-08-27T15:36:18.577Z,1012.22
2016-08-27T15:37:31.570Z,1012.27
2016-08-27T15:38:44.768Z,1012.29
2016-08-27T15:39:57.763Z,1012.29
2016-08-27T15:41:10.970Z,1012.26
2016-08-27T15:42:23.966Z,1012.28
2016-08-27T15:43:37.352Z,1012.28
2016-08-27T15:44:51.768Z,1012.3
2016-08-27T15:46:04.827Z,1012.3
2016-08-27T15:47:17.819Z,1012.31
2016-08-27T15:48:31.026Z,1012.29
2016-08-27T15:49:44.220Z,1012.28
2016-08-27T15:50:57.224Z,1012.3
2016-08-27T15:52:10.232Z,1012.26
2016-08-27T15:53:23.236Z,1012.26
2016-08-27T15:54:36.232Z,1012.24
2016-08-27T15:55:50.349Z,1012.24
2016-08-27T15:57:03.348Z,1012.23
2016-08-27T15:58:16.344Z,1012.19
2016-08-27T15:59:29.347Z,1012.22
2016-08-27T16:00:42.547Z,1012.19
2016-08-27T16:01:55.897Z,1012.15
2016-08-27T16:03:08.898Z,1012.14
2016-08-27T16:04:22.620Z,1012.12
2016-08-27T16:05:37.309Z,1012.08
2016-08-27T16:06:50.306Z,1012.09
2016-08-27T16:08:03.301Z,1012.06
2016-08-27T16:09:16.300Z,1012.01
2016-08-27T16:10:29.308Z,1011.99
2016-08-27T16:11:42.315Z,1011.92
2016-08-27T16:12:55.333Z,1011.93
2016-08-27T16:14:08.322Z,1011.88
2016-08-27T16:15:22.263Z,1011.87
2016-08-27T16:16:35.626Z,1011.92
2016-08-27T16:17:48.847Z,1011.86
2016-08-27T16:19:01.837Z,1011.92
2016-08-27T16:20:14.839Z,1011.88
2016-08-27T16:21:28.075Z,1011.87
2016-08-27T16:22:41.369Z,1011.88
2016-08-27T16:23:54.365Z,1011.87
2016-08-27T16:25:07.357Z,1011.86
2016-08-27T16:26:21.198Z,1011.8
2016-08-27T16:27:34.194Z,1011.81
2016-08-27T16:28:47.222Z,1011.77
2016-08-27T16:30:01.026Z,1011.78
2016-08-27T16:31:14.220Z,1011.75
2016-08-27T16:32:27.619Z,1011.74
2016-08-27T16:33:40.612Z,1011.7
2016-08-27T16:34:53.810Z,1011.68
2016-08-27T16:36:06.819Z,1011.64
2016-08-27T16:37:19.829Z,1011.65
2016-08-27T16:38:32.821Z,1011.64
2016-08-27T16:39:45.812Z,1011.64
2016-08-27T16:40:58.810Z,1011.66
2016-08-27T16:42:11.808Z,1011.62
2016-08-27T16:43:24.804Z,1011.6
2016-08-27T16:44:38.006Z,1011.61
2016-08-27T16:45:51.045Z,1011.58
2016-08-27T16:47:04.050Z,1011.57
2016-08-27T16:48:17.050Z,1011.59
2016-08-27T16:49:30.248Z,1011.61
2016-08-27T16:50:43.249Z,1011.59
2016-08-27T16:51:57.554Z,1011.64
2016-08-27T16:53:10.584Z,1011.62
2016-08-27T16:54:23.595Z,1011.6
2016-08-27T16:55:36.588Z,1011.6
2016-08-27T16:56:49.582Z,1011.52
2016-08-27T16:58:02.582Z,1011.53
2016-08-27T16:59:15.574Z,1011.47
2016-08-27T17:00:28.578Z,1011.4
2016-08-27T17:01:41.579Z,1011.38
2016-08-27T17:02:55.682Z,1011.37
2016-08-27T17:04:08.674Z,1011.36
2016-08-27T17:05:23.166Z,1011.33
2016-08-27T17:06:36.156Z,1011.31
2016-08-27T17:07:49.148Z,1011.26
2016-08-27T17:09:03.655Z,1011.28
2016-08-27T17:10:16.648Z,1011.28
2016-08-27T17:11:29.640Z,1011.27
2016-08-27T17:12:42.630Z,1011.24
2016-08-27T17:13:55.618Z,1011.29
2016-08-27T17:15:08.607Z,1011.31
2016-08-27T17:16:21.606Z,1011.29
2016-08-27T17:17:34.596Z,1011.28
2016-08-27T17:18:47.607Z,1011.28
2016-08-27T17:20:00.804Z,1011.26
2016-08-27T17:21:13.804Z,1011.27
2016-08-27T17:22:26.808Z,1011.26
2016-08-27T17:23:40.107Z,1011.23
2016-08-27T17:24:53.107Z,1011.22
2016-08-27T17:26:06.097Z,1011.2
2016-08-27T17:27:19.566Z,1011.25
2016-08-27T17:28:32.558Z,1011.22
2016-08-27T17:29:46.279Z,1011.17
2016-08-27T17:30:59.481Z,1011.18
2016-08-27T17:32:12.477Z,1011.09
2016-08-27T17:33:25.888Z,1011.1
2016-08-27T17:34:38.884Z,1011.08
2016-08-27T17:35:51.879Z,1011.04
2016-08-27T17:37:04.875Z,1011.08
2016-08-27T17:38:17.893Z,1011.01
2016-08-27T17:39:30.895Z,1010.99
2016-08-27T17:40:43.893Z,1011.01
2016-08-27T17:41:56.896Z,1010.99
2016-08-27T17:43:09.903Z,1010.98
2016-08-27T17:44:22.887Z,1010.97
2016-08-27T17:45:35.888Z,1010.96
2016-08-27T17:46:49.133Z,1010.99
2016-08-27T17:48:02.126Z,1010.97
2016-08-27T17:49:15.330Z,1010.97
2016-08-27T17:50:28.319Z,1010.99
2016-08-27T17:51:42.281Z,1011.02
2016-08-27T17:52:55.279Z,1011.01
2016-08-27T17:54:08.677Z,1011
2016-08-27T17:55:21.667Z,1011.01
2016-08-27T17:56:34.664Z,1011
2016-08-27T17:57:47.762Z,1010.98
2016-08-27T17:59:00.765Z,1010.96
2016-08-27T18:00:13.752Z,1010.97
2016-08-27T18:01:26.747Z,1010.91
2016-08-27T18:02:39.730Z,1010.96
2016-08-27T18:03:52.920Z,1010.97
2016-08-27T18:05:05.915Z,1010.94
2016-08-27T18:06:19.179Z,1010.92
2016-08-27T18:07:32.692Z,1010.92
2016-08-27T18:08:45.686Z,1010.9
2016-08-27T18:09:58.876Z,1010.93
2016-08-27T18:11:11.870Z,1010.89
2016-08-27T18:12:24.864Z,1010.86
2016-08-27T18:13:38.065Z,1010.88
2016-08-27T18:14:51.059Z,1010.9
2016-08-27T18:16:04.077Z,1010.86
2016-08-27T18:17:17.099Z,1010.85
2016-08-27T18:18:30.299Z,1010.81
2016-08-27T18:19:43.502Z,1010.83
2016-08-27T18:20:56.494Z,1010.84
2016-08-27T18:22:09.490Z,1010.86
2016-08-27T18:23:22.479Z,1010.84
2016-08-27T18:24:35.469Z,1010.86
2016-08-27T18:25:48.463Z,1010.81
2016-08-27T18:27:01.650Z,1010.81
2016-08-27T18:28:14.650Z,1010.82
2016-08-27T18:29:27.850Z,1010.83
2016-08-27T18:30:40.833Z,1010.79
2016-08-27T18:31:53.823Z,1010.82
2016-08-27T18:33:07.015Z,1010.82
2016-08-27T18:34:20.059Z,1010.8
2016-08-27T18:35:33.054Z,1010.78
2016-08-27T18:36:46.046Z,1010.71
2016-08-27T18:37:59.051Z,1010.72
2016-08-27T18:39:12.040Z,1010.72
2016-08-27T18:40:25.041Z,1010.68
2016-08-27T18:41:38.240Z,1010.66
2016-08-27T18:42:51.237Z,1010.68
2016-08-27T18:44:04.230Z,1010.66
2016-08-27T18:45:17.223Z,1010.67
2016-08-27T18:46:30.213Z,1010.67
2016-08-27T18:47:43.258Z,1010.67
2016-08-27T18:48:56.254Z,1010.67
2016-08-27T18:50:09.242Z,1010.66
2016-08-27T18:51:22.432Z,1010.66
2016-08-27T18:52:35.619Z,1010.64
2016-08-27T18:53:48.813Z,1010.65
2016-08-27T18:55:01.801Z,1010.63
2016-08-27T18:56:14.790Z,1010.63
2016-08-27T18:57:27.989Z,1010.64
2016-08-27T18:58:40.987Z,1010.6
2016-08-27T18:59:53.989Z,1010.64
2016-08-27T19:01:06.983Z,1010.64
2016-08-27T19:02:19.973Z,1010.61
2016-08-27T19:03:32.975Z,1010.63
2016-08-27T19:04:45.971Z,1010.7
2016-08-27T19:05:58.957Z,1010.64
2016-08-27T19:07:11.942Z,1010.64
2016-08-27T19:08:25.134Z,1010.57
2016-08-27T19:09:38.326Z,1010.53
2016-08-27T19:10:51.317Z,1010.56
2016-08-27T19:12:04.709Z,1010.56
2016-08-27T19:13:17.897Z,1010.6
2016-08-27T19:14:30.887Z,1010.63
2016-08-27T19:15:43.890Z,1010.63
2016-08-27T19:16:56.880Z,1010.7
2016-08-27T19:18:09.867Z,1010.67
2016-08-27T19:19:22.866Z,1010.68
2016-08-27T19:20:36.064Z,1010.69
2016-08-27T19:21:49.059Z,1010.68
2016-08-27T19:23:02.047Z,1010.63
2016-08-27T19:24:15.247Z,1010.61
2016-08-27T19:25:28.252Z,1010.59
2016-08-27T19:26:41.248Z,1010.6
2016-08-27T19:27:54.232Z,1010.55
2016-08-27T19:29:07.225Z,1010.5
2016-08-27T19:30:20.221Z,1010.41
2016-08-27T19:31:33.206Z,1010.38
2016-08-27T19:32:46.207Z,1010.32
2016-08-27T19:33:59.404Z,1010.33
2016-08-27T19:35:12.397Z,1010.35
2016-08-27T19:36:25.388Z,1010.35
2016-08-27T19:37:38.377Z,1010.28
2016-08-27T19:38:51.363Z,1010.25
2016-08-27T19:40:04.360Z,1010.24
2016-08-27T19:41:17.361Z,1010.23
2016-08-27T19:42:30.365Z,1010.24
2016-08-27T19:43:43.348Z,1010.25
2016-08-27T19:44:56.345Z,1010.23
2016-08-27T19:46:09.337Z,1010.27
2016-08-27T19:47:22.334Z,1010.27
2016-08-27T19:48:35.371Z,1010.25
2016-08-27T19:49:48.560Z,1010.23
2016-08-27T19:51:01.757Z,1010.21
2016-08-27T19:52:14.762Z,1010.22
2016-08-27T19:53:27.767Z,1010.2
2016-08-27T19:54:40.757Z,1010.2
2016-08-27T19:55:53.740Z,1010.15
2016-08-27T19:57:06.732Z,1010.12
2016-08-27T19:58:19.736Z,1010.17
2016-08-27T19:59:32.736Z,1010.18
2016-08-27T20:00:45.716Z,1010.23
2016-08-27T20:01:58.723Z,1010.25
2016-08-27T20:03:11.920Z,1010.3
2016-08-27T20:04:24.904Z,1010.27
2016-08-27T20:05:37.893Z,1010.22
2016-08-27T20:06:50.881Z,1010.2
2016-08-27T20:08:04.081Z,1010.2
2016-08-27T20:09:17.272Z,1010.19
2016-08-27T20:10:30.459Z,1010.2
2016-08-27T20:11:43.449Z,1010.21
2016-08-27T20:12:56.448Z,1010.2
2016-08-27T20:14:09.433Z,1010.24
2016-08-27T20:15:22.429Z,1010.22
2016-08-27T20:16:35.412Z,1010.21
2016-08-27T20:17:48.403Z,1010.21
2016-08-27T20:19:01.400Z,1010.2
2016-08-27T20:20:14.596Z,1010.13
2016-08-27T20:21:27.790Z,1010.1
2016-08-27T20:22:40.778Z,1010.07
2016-08-27T20:23:53.772Z,1010.04
2016-08-27T20:25:06.769Z,1010.08
2016-08-27T20:26:19.966Z,1010.03
2016-08-27T20:27:32.973Z,1010.03
2016-08-27T20:28:46.163Z,1010
2016-08-27T20:29:59.162Z,1010.03
2016-08-27T20:31:12.357Z,1010.07
2016-08-27T20:32:25.549Z,1010.12
2016-08-27T20:33:38.744Z,1010.14
2016-08-27T20:34:51.749Z,1010.13
2016-08-27T20:36:04.738Z,1010.14
2016-08-27T20:37:17.731Z,1010.15
2016-08-27T20:38:30.737Z,1010.15
2016-08-27T20:39:43.728Z,1010.17
2016-08-27T20:40:56.720Z,1010.06
2016-08-27T20:42:09.710Z,1009.93
2016-08-27T20:43:22.709Z,1009.85
2016-08-27T20:44:35.705Z,1009.83
2016-08-27T20:45:48.699Z,1009.79
2016-08-27T20:47:01.697Z,1009.8
2016-08-27T20:48:14.686Z,1009.84
2016-08-27T20:49:27.725Z,1009.94
2016-08-27T20:50:40.932Z,1010.04
2016-08-27T20:51:53.922Z,1010.18
2016-08-27T20:53:06.914Z,1010.36
2016-08-27T20:54:19.906Z,1010.56
2016-08-27T20:55:32.917Z,1010.87
2016-08-27T20:56:46.114Z,1010.98
2016-08-27T20:57:59.520Z,1010.91
2016-08-27T20:59:12.505Z,1010.8
2016-08-27T21:00:25.499Z,1010.68
2016-08-27T21:01:38.500Z,1010.6
2016-08-27T21:02:51.487Z,1010.49
2016-08-27T21:04:04.477Z,1010.42
2016-08-27T21:05:17.473Z,1010.35
2016-08-27T21:06:30.466Z,1010.36
2016-08-27T21:07:43.462Z,1010.25
2016-08-27T21:08:56.469Z,1010.04
2016-08-27T21:10:09.457Z,1009.95
2016-08-27T21:11:22.447Z,1009.89
2016-08-27T21:12:35.436Z,1009.74
2016-08-27T21:13:48.429Z,1009.63
2016-08-27T21:15:01.424Z,1009.69
2016-08-27T21:16:14.420Z,1009.78
2016-08-27T21:17:27.412Z,1009.98
2016-08-27T21:18:40.397Z,1010.15
2016-08-27T21:19:53.391Z,1010.3
2016-08-27T21:21:06.384Z,1010.25
2016-08-27T21:22:19.367Z,1010.11
2016-08-27T21:23:32.358Z,1010.05
2016-08-27T21:24:45.347Z,1010.1
2016-08-27T21:25:58.337Z,1010.13
2016-08-27T21:27:11.328Z,1010.16
2016-08-27T21:28:24.322Z,1010.09
2016-08-27T21:29:37.307Z,1010.16
2016-08-27T21:30:50.300Z,1010.14
2016-08-27T21:32:03.288Z,1010.17
2016-08-27T21:33:16.312Z,1010.26
2016-08-27T21:34:29.297Z,1010.21
2016-08-27T21:35:42.295Z,1010.11
2016-08-27T21:36:55.274Z,1010.07
2016-08-27T21:38:08.266Z,1010.14
2016-08-27T21:39:21.260Z,1010.51
2016-08-27T21:40:34.253Z,1011.26
2016-08-27T21:41:47.248Z,1011.15
2016-08-27T21:43:00.237Z,1010.87
2016-08-27T21:44:13.439Z,1010.48
2016-08-27T21:45:26.435Z,1010.62
2016-08-27T21:46:39.624Z,1011.59
2016-08-27T21:47:52.609Z,1013.79
2016-08-27T21:49:05.611Z,1013.24
2016-08-27T21:50:18.639Z,1011.47
2016-08-27T21:51:32.034Z,1010.65
2016-08-27T21:52:45.039Z,1010.54
2016-08-27T21:53:58.225Z,1010.21
2016-08-27T21:55:11.409Z,1010
2016-08-27T21:56:24.384Z,1009.9
2016-08-27T21:57:37.356Z,1009.72
2016-08-27T21:58:50.331Z,1009.77
2016-08-27T22:00:03.339Z,1009.82
2016-08-27T22:01:16.315Z,1009.6
2016-08-27T22:02:29.299Z,1009.62
2016-08-27T22:03:42.277Z,1009.73
2016-08-27T22:04:55.262Z,1009.71
2016-08-27T22:06:08.241Z,1009.76
2016-08-27T22:07:21.241Z,1009.68
2016-08-27T22:08:34.225Z,1009.53
2016-08-27T22:09:47.205Z,1009.36
2016-08-27T22:11:00.186Z,1009.41
2016-08-27T22:12:13.160Z,1009.28
2016-08-27T22:13:26.146Z,1009.16
2016-08-27T22:14:39.142Z,1009.14
2016-08-27T22:15:52.124Z,1009.15
2016-08-27T22:17:05.097Z,1009.16
2016-08-27T22:18:18.086Z,1009.23
2016-08-27T22:19:31.085Z,1009.33
2016-08-27T22:20:44.060Z,1009.37
2016-08-27T22:21:57.248Z,1009.46
2016-08-27T22:23:10.246Z,1009.4
2016-08-27T22:24:23.232Z,1009.39
2016-08-27T22:25:36.208Z,1009.35
2016-08-27T22:26:49.193Z,1009.32
2016-08-27T22:28:02.183Z,1009.32
2016-08-27T22:29:15.177Z,1009.43
2016-08-27T22:30:28.172Z,1009.4
2016-08-27T22:31:41.151Z,1009.28
2016-08-27T22:32:54.139Z,1009.26
2016-08-27T22:34:07.119Z,1009.3
2016-08-27T22:35:20.099Z,1009.33
2016-08-27T22:36:33.081Z,1009.29
2016-08-27T22:37:46.069Z,1009.29
2016-08-27T22:38:59.058Z,1009.22
2016-08-27T22:40:12.059Z,1009.19
2016-08-27T22:41:25.241Z,1009.26
2016-08-27T22:42:38.222Z,1009.2
2016-08-27T22:43:51.203Z,1009.23
2016-08-27T22:45:04.194Z,1009.23
2016-08-27T22:46:17.178Z,1009.22
2016-08-27T22:47:30.171Z,1009.22
2016-08-27T22:48:43.157Z,1009.3
2016-08-27T22:49:56.141Z,1009.21
2016-08-27T22:51:09.377Z,1009.16
2016-08-27T22:52:22.397Z,1009.15
2016-08-27T22:53:35.383Z,1009.15
2016-08-27T22:54:48.777Z,1009.08
2016-08-27T22:56:01.777Z,1009.07
2016-08-27T22:57:14.799Z,1009.03
2016-08-27T22:58:27.783Z,1009.05
2016-08-27T22:59:40.970Z,1009.02
2016-08-27T23:00:53.949Z,1008.93
2016-08-27T23:02:06.927Z,1008.92
2016-08-27T23:03:19.922Z,1008.9
2016-08-27T23:04:32.918Z,1008.95
2016-08-27T23:05:45.899Z,1008.95
2016-08-27T23:06:59.090Z,1008.92
2016-08-27T23:08:12.073Z,1008.93
2016-08-27T23:09:25.256Z,1008.91
2016-08-27T23:10:38.245Z,1008.9
2016-08-27T23:11:51.230Z,1008.87
2016-08-27T23:13:04.610Z,1008.86
2016-08-27T23:14:17.598Z,1008.8
2016-08-27T23:15:30.589Z,1008.75
2016-08-27T23:16:43.596Z,1008.74
2016-08-27T23:17:56.596Z,1008.71
2016-08-27T23:19:09.586Z,1008.69
2016-08-27T23:20:22.573Z,1008.68
2016-08-27T23:21:35.557Z,1008.72
2016-08-27T23:22:48.745Z,1008.76
2016-08-27T23:24:01.923Z,1008.81
2016-08-27T23:25:15.112Z,1008.89
2016-08-27T23:26:28.097Z,1009
2016-08-27T23:27:41.092Z,1009.11
2016-08-27T23:28:54.089Z,1009.15
2016-08-27T23:30:07.072Z,1009.22
2016-08-27T23:31:20.055Z,1009.31
2016-08-27T23:32:33.042Z,1009.33
2016-08-27T23:33:46.029Z,1009.51
2016-08-27T23:34:59.034Z,1009.58
2016-08-27T23:36:12.024Z,1009.53
2016-08-27T23:37:25.050Z,1009.58
2016-08-27T23:38:38.235Z,1009.57
2016-08-27T23:39:51.254Z,1009.66
2016-08-27T23:41:04.477Z,1009.56
2016-08-27T23:42:17.466Z,1009.57
2016-08-27T23:43:30.478Z,1009.65
2016-08-27T23:44:43.477Z,1009.69
2016-08-27T23:45:56.473Z,1009.77
2016-08-27T23:47:09.461Z,1009.83
2016-08-27T23:48:22.451Z,1009.87
2016-08-27T23:49:35.444Z,1009.8
2016-08-27T23:50:48.428Z,1009.78
2016-08-27T23:52:01.676Z,1009.75
2016-08-27T23:53:14.653Z,1009.72
2016-08-27T23:54:27.644Z,1009.69
2016-08-27T23:55:40.624Z,1009.79
2016-08-27T23:56:53.605Z,1009.8
2016-08-27T23:58:06.614Z,1009.73
2016-08-27T23:59:19.603Z,1009.73
